createdAt,value
2022-11-24T00:01:26.011Z,7.13
2022-11-24T00:04:00.222Z,7.12
2022-11-24T00:06:30.266Z,7.08
2022-11-24T00:08:58.996Z,7.02
2022-11-24T00:11:31.684Z,7.01
2022-11-24T00:14:00.514Z,7.00
2022-11-24T00:16:34.418Z,6.97
2022-11-24T00:19:04.687Z,6.96
2022-11-24T00:21:32.642Z,6.94
2022-11-24T00:24:01.329Z,6.91
2022-11-24T00:26:31.917Z,6.83
2022-11-24T00:29:03.269Z,6.80
2022-11-24T00:31:37.230Z,6.77
2022-11-24T00:34:07.797Z,6.78
2022-11-24T00:36:37.178Z,6.76
2022-11-24T00:39:12.287Z,6.74
2022-11-24T00:41:41.133Z,6.71
2022-11-24T00:44:09.336Z,6.72
2022-11-24T00:46:37.930Z,6.70
2022-11-24T00:49:06.210Z,6.66
2022-11-24T00:51:34.277Z,6.64
2022-11-24T00:54:02.548Z,6.65
2022-11-24T00:56:30.959Z,6.64
2022-11-24T00:58:59.092Z,6.64
2022-11-24T01:01:31.185Z,6.68
2022-11-24T01:04:02.081Z,6.67
2022-11-24T01:06:31.094Z,6.64
2022-11-24T01:08:58.987Z,6.61
2022-11-24T01:11:28.231Z,6.56
2022-11-24T01:13:58.601Z,6.54
2022-11-24T01:16:31.035Z,6.57
2022-11-24T01:19:00.142Z,6.54
2022-11-24T01:21:27.978Z,6.49
2022-11-24T01:23:55.916Z,6.46
2022-11-24T01:26:23.782Z,6.41
2022-11-24T01:28:56.389Z,6.36
2022-11-24T01:31:26.012Z,6.29
2022-11-24T01:33:54.515Z,6.29
2022-11-24T01:36:23.052Z,6.27
2022-11-24T01:38:51.977Z,6.27
2022-11-24T01:41:22.683Z,6.26
2022-11-24T01:43:52.196Z,6.25
2022-11-24T01:46:43.508Z,6.20
2022-11-24T01:49:21.819Z,6.20
2022-11-24T01:52:05.468Z,6.20
2022-11-24T01:54:38.681Z,6.16
2022-11-24T01:57:27.491Z,6.13
2022-11-24T02:00:02.043Z,6.11
2022-11-24T02:02:43.954Z,6.03
2022-11-24T02:05:29.805Z,6.01
2022-11-24T02:08:01.083Z,6.00
2022-11-24T02:10:29.818Z,5.99
2022-11-24T02:13:00.368Z,6.03
2022-11-24T02:15:28.829Z,6.04
2022-11-24T02:17:59.051Z,6.03
2022-11-24T02:20:27.008Z,5.99
2022-11-24T02:23:09.780Z,5.96
2022-11-24T02:26:08.412Z,5.95
2022-11-24T02:28:40.281Z,5.94
2022-11-24T02:31:08.914Z,5.96
2022-11-24T02:33:37.704Z,5.92
2022-11-24T02:36:05.924Z,5.89
2022-11-24T02:38:35.594Z,5.86
2022-11-24T02:41:07.771Z,5.84
2022-11-24T02:43:42.634Z,5.84
2022-11-24T02:46:10.931Z,5.83
2022-11-24T02:48:39.295Z,5.80
2022-11-24T02:51:07.136Z,5.76
2022-11-24T02:53:35.302Z,5.79
2022-11-24T02:56:03.380Z,5.81
2022-11-24T02:58:31.346Z,5.79
2022-11-24T03:00:59.893Z,5.74
2022-11-24T03:03:28.059Z,5.69
2022-11-24T03:05:55.988Z,5.59
2022-11-24T03:08:23.885Z,5.52
2022-11-24T03:10:51.858Z,5.46
2022-11-24T03:13:19.704Z,5.45
2022-11-24T03:15:47.625Z,5.43
2022-11-24T03:18:15.569Z,5.34
2022-11-24T03:20:44.253Z,5.29
2022-11-24T03:23:12.189Z,5.19
2022-11-24T03:25:40.596Z,5.07
2022-11-24T03:28:08.493Z,5.04
2022-11-24T03:30:36.385Z,5.02
2022-11-24T03:33:05.121Z,5.02
2022-11-24T03:35:33.090Z,5.04
2022-11-24T03:38:00.994Z,5.01
2022-11-24T03:40:28.863Z,4.98
2022-11-24T03:42:57.167Z,4.98
2022-11-24T03:48:13.622Z,5.01
2022-11-24T03:50:41.550Z,4.99
2022-11-24T03:53:09.495Z,4.99
2022-11-24T03:55:37.353Z,5.01
2022-11-24T03:58:05.244Z,5.04
2022-11-24T04:00:33.178Z,5.11
2022-11-24T04:03:00.995Z,5.11
2022-11-24T04:05:29.121Z,5.10
2022-11-24T04:07:57.662Z,5.10
2022-11-24T04:10:25.531Z,5.13
2022-11-24T04:12:53.395Z,5.14
2022-11-24T04:15:22.308Z,5.11
2022-11-24T04:17:50.867Z,5.07
2022-11-24T04:20:18.926Z,4.95
2022-11-24T04:22:46.838Z,4.83
2022-11-24T04:25:17.480Z,4.68
2022-11-24T04:27:45.809Z,4.55
2022-11-24T04:30:13.619Z,4.48
2022-11-24T04:32:41.437Z,4.46
2022-11-24T04:35:09.427Z,4.44
2022-11-24T04:37:37.569Z,4.37
2022-11-24T04:40:07.570Z,4.32
2022-11-24T04:42:35.574Z,4.32
2022-11-24T04:45:04.950Z,4.32
2022-11-24T04:47:33.114Z,4.29
2022-11-24T04:50:01.157Z,4.27
2022-11-24T04:52:30.377Z,4.29
2022-11-24T04:54:58.261Z,4.27
2022-11-24T04:57:27.164Z,4.24
2022-11-24T04:59:55.415Z,4.25
2022-11-24T05:02:23.486Z,4.23
2022-11-24T05:04:51.501Z,4.24
2022-11-24T05:07:19.837Z,4.26
2022-11-24T05:10:06.437Z,4.26
2022-11-24T05:12:34.424Z,4.27
2022-11-24T05:15:04.605Z,4.31
2022-11-24T05:17:35.374Z,4.38
2022-11-24T05:20:06.011Z,4.40
2022-11-24T05:22:34.339Z,4.39
2022-11-24T05:25:02.502Z,4.38
2022-11-24T05:27:30.680Z,4.39
2022-11-24T05:29:59.056Z,4.44
2022-11-24T05:32:27.100Z,4.47
2022-11-24T05:34:55.319Z,4.45
2022-11-24T05:37:25.601Z,4.45
2022-11-24T05:39:54.788Z,4.46
2022-11-24T05:42:46.091Z,4.45
2022-11-24T05:45:18.766Z,4.42
2022-11-24T05:47:47.168Z,4.38
2022-11-24T05:50:17.161Z,4.38
2022-11-24T05:52:45.528Z,4.45
2022-11-24T05:55:15.184Z,4.42
2022-11-24T05:57:43.685Z,4.39
2022-11-24T06:00:12.442Z,4.37
2022-11-24T06:02:41.028Z,4.40
2022-11-24T06:05:09.416Z,4.41
2022-11-24T06:07:37.573Z,4.40
2022-11-24T06:10:05.949Z,4.41
2022-11-24T06:12:33.786Z,4.40
2022-11-24T06:15:02.218Z,4.41
2022-11-24T06:17:30.129Z,4.41
2022-11-24T06:19:58.015Z,4.41
2022-11-24T06:22:25.938Z,4.39
2022-11-24T06:24:53.930Z,4.40
2022-11-24T06:27:21.912Z,4.43
2022-11-24T06:29:49.819Z,4.46
2022-11-24T06:32:18.046Z,4.48
2022-11-24T06:34:46.078Z,4.46
2022-11-24T06:37:14.060Z,4.49
2022-11-24T06:39:42.595Z,4.53
2022-11-24T06:42:10.526Z,4.58
2022-11-24T06:44:39.481Z,4.60
2022-11-24T06:47:07.436Z,4.57
2022-11-24T06:49:35.416Z,4.52
2022-11-24T06:52:03.440Z,4.52
2022-11-24T06:54:31.669Z,4.53
2022-11-24T06:57:00.329Z,4.54
2022-11-24T06:59:28.282Z,4.56
2022-11-24T07:01:56.215Z,4.58
2022-11-24T07:04:24.083Z,4.58
2022-11-24T07:06:52.036Z,4.57
2022-11-24T07:09:19.967Z,4.57
2022-11-24T07:11:47.886Z,4.59
2022-11-24T07:14:15.876Z,4.61
2022-11-24T07:16:43.790Z,4.61
2022-11-24T07:19:11.988Z,4.59
2022-11-24T07:21:39.868Z,4.59
2022-11-24T07:24:07.963Z,4.60
2022-11-24T07:26:37.538Z,4.60
2022-11-24T07:29:06.077Z,4.60
2022-11-24T07:31:34.210Z,4.61
2022-11-24T07:34:02.249Z,4.62
2022-11-24T07:36:30.155Z,4.63
2022-11-24T07:38:58.667Z,4.64
2022-11-24T07:41:27.023Z,4.66
2022-11-24T07:43:55.819Z,4.68
2022-11-24T07:46:23.892Z,4.71
2022-11-24T07:48:52.033Z,4.75
2022-11-24T07:51:20.022Z,4.79
2022-11-24T07:53:47.900Z,4.82
2022-11-24T07:56:15.804Z,4.83
2022-11-24T07:58:45.091Z,4.85
2022-11-24T08:01:19.423Z,4.87
2022-11-24T08:03:47.544Z,4.89
2022-11-24T08:06:29.989Z,4.90
2022-11-24T08:09:00.555Z,4.91
2022-11-24T08:11:28.590Z,4.94
2022-11-24T08:13:57.819Z,5.00
2022-11-24T08:16:25.860Z,5.04
2022-11-24T08:18:55.501Z,5.06
2022-11-24T08:21:25.692Z,5.05
2022-11-24T08:23:54.941Z,5.05
2022-11-24T08:26:24.875Z,5.07
2022-11-24T08:28:58.590Z,5.11
2022-11-24T08:31:33.837Z,5.14
2022-11-24T08:34:03.816Z,5.17
2022-11-24T08:36:33.244Z,5.17
2022-11-24T08:39:01.713Z,5.21
2022-11-24T08:41:30.841Z,5.24
2022-11-24T08:43:58.814Z,5.25
2022-11-24T08:46:26.694Z,5.26
2022-11-24T08:48:55.340Z,5.30
2022-11-24T08:51:26.089Z,5.36
2022-11-24T08:53:59.021Z,5.43
2022-11-24T08:56:29.634Z,5.46
2022-11-24T08:58:58.132Z,5.54
2022-11-24T09:01:26.884Z,5.55
2022-11-24T09:03:55.100Z,5.55
2022-11-24T09:06:26.583Z,5.52
2022-11-24T09:08:55.687Z,5.55
2022-11-24T09:11:25.900Z,5.57
2022-11-24T09:13:55.218Z,5.59
2022-11-24T09:16:26.161Z,5.57
2022-11-24T09:18:58.380Z,5.61
2022-11-24T09:21:27.171Z,5.63
2022-11-24T09:23:55.710Z,5.64
2022-11-24T09:26:26.727Z,5.66
2022-11-24T09:28:55.429Z,5.68
2022-11-24T09:31:26.337Z,5.71
2022-11-24T09:33:54.685Z,5.73
2022-11-24T09:36:23.853Z,5.70
2022-11-24T09:38:52.643Z,5.72
2022-11-24T09:41:44.600Z,5.73
2022-11-24T09:44:31.394Z,5.73
2022-11-24T09:47:17.260Z,5.79
2022-11-24T09:49:56.428Z,5.85
2022-11-24T09:52:53.208Z,5.85
2022-11-24T09:55:51.935Z,5.87
2022-11-24T09:58:43.067Z,5.91
2022-11-24T10:01:26.261Z,5.95
2022-11-24T10:03:55.047Z,5.96
2022-11-24T10:06:31.194Z,5.99
2022-11-24T10:09:37.146Z,6.03
2022-11-24T10:12:05.393Z,6.06
2022-11-24T10:14:59.064Z,6.13
2022-11-24T10:17:51.403Z,6.22
2022-11-24T10:20:38.497Z,6.29
2022-11-24T10:23:27.091Z,6.37
2022-11-24T10:25:59.364Z,6.38
2022-11-24T10:28:42.367Z,6.40
2022-11-24T10:31:24.768Z,6.35
2022-11-24T10:33:52.674Z,6.35
2022-11-24T10:37:03.109Z,6.38
2022-11-24T10:39:36.002Z,6.42
2022-11-24T10:42:10.217Z,6.43
2022-11-24T10:44:41.118Z,6.48
2022-11-24T10:47:20.310Z,6.52
2022-11-24T10:50:09.342Z,6.49
2022-11-24T10:52:43.163Z,6.43
2022-11-24T10:55:11.154Z,6.37
2022-11-24T10:57:40.745Z,6.36
2022-11-24T11:00:20.895Z,6.42
2022-11-24T11:02:51.050Z,6.39
2022-11-24T11:05:44.008Z,6.37
2022-11-24T11:08:17.475Z,6.35
2022-11-24T11:10:46.730Z,6.33
2022-11-24T11:13:27.394Z,6.31
2022-11-24T11:15:57.659Z,6.31
2022-11-24T11:18:32.869Z,6.33
2022-11-24T11:21:02.502Z,6.35
2022-11-24T11:23:34.938Z,6.32
2022-11-24T11:26:24.727Z,6.28
2022-11-24T11:35:04.180Z,6.24
2022-11-24T11:37:33.645Z,6.22
2022-11-24T11:40:01.997Z,6.24
2022-11-24T11:43:00.920Z,6.25
2022-11-24T11:45:28.024Z,6.26
2022-11-24T11:47:59.170Z,6.27
2022-11-24T11:50:47.373Z,6.29
2022-11-24T11:53:34.095Z,6.33
2022-11-24T11:56:25.826Z,6.34
2022-11-24T11:59:00.314Z,6.36
2022-11-24T12:01:38.038Z,6.36
2022-11-24T12:04:44.336Z,6.35
2022-11-24T12:07:57.091Z,6.34
2022-11-24T12:10:37.013Z,6.30
2022-11-24T12:13:13.932Z,6.28
2022-11-24T12:15:49.690Z,6.27
2022-11-24T12:18:55.861Z,6.25
2022-11-24T12:21:26.023Z,6.20
2022-11-24T12:23:57.544Z,6.22
2022-11-24T12:26:54.729Z,6.23
2022-11-24T12:29:48.286Z,6.21
2022-11-24T12:32:50.450Z,6.24
2022-11-24T12:35:36.267Z,6.18
2022-11-24T12:38:23.087Z,6.15
2022-11-24T12:41:40.541Z,6.14
2022-11-24T12:44:27.291Z,6.12
2022-11-24T12:47:10.245Z,6.11
2022-11-24T12:50:14.564Z,6.11
2022-11-24T12:52:45.558Z,6.12
2022-11-24T12:55:23.755Z,6.14
2022-11-24T12:58:07.804Z,6.16
2022-11-24T13:01:11.563Z,6.15
2022-11-24T13:03:54.959Z,6.15
2022-11-24T13:06:29.572Z,6.17
2022-11-24T13:08:57.769Z,6.19
2022-11-24T13:11:36.898Z,6.18
2022-11-24T13:14:26.510Z,6.15
2022-11-24T13:17:28.053Z,6.13
2022-11-24T13:19:48.567Z,6.14
2022-11-24T13:22:26.476Z,6.08
2022-11-24T13:25:14.735Z,6.05
2022-11-24T13:27:45.710Z,6.03
2022-11-24T13:30:35.473Z,6.01
2022-11-24T13:33:16.455Z,5.98
2022-11-24T13:36:04.395Z,6.00
2022-11-24T13:38:51.432Z,6.03
2022-11-24T13:41:31.504Z,6.01
2022-11-24T13:44:14.933Z,6.01
2022-11-24T13:47:06.695Z,6.01
2022-11-24T13:49:38.916Z,5.97
2022-11-24T13:52:34.624Z,5.99
2022-11-24T13:55:21.844Z,5.98
2022-11-24T13:58:00.524Z,5.98
2022-11-24T14:00:32.120Z,6.00
2022-11-24T14:03:15.395Z,5.97
2022-11-24T14:05:50.666Z,5.94
2022-11-24T14:08:26.298Z,5.92
2022-11-24T14:10:56.525Z,5.91
2022-11-24T14:13:30.826Z,5.93
2022-11-24T14:16:03.114Z,5.94
2022-11-24T14:18:32.402Z,5.96
2022-11-24T14:21:27.902Z,5.98
2022-11-24T14:24:17.017Z,5.96
2022-11-24T14:26:46.182Z,5.95
2022-11-24T14:29:20.379Z,5.94
2022-11-24T14:31:57.111Z,5.91
2022-11-24T14:34:28.045Z,5.90
2022-11-24T14:36:57.228Z,5.92
2022-11-24T14:39:27.067Z,5.94
2022-11-24T14:42:07.991Z,5.94
2022-11-24T14:44:42.066Z,5.94
2022-11-24T14:47:32.033Z,5.98
2022-11-24T14:50:27.182Z,5.99
2022-11-24T14:52:57.143Z,6.03
2022-11-24T14:55:33.053Z,6.07
2022-11-24T14:58:01.027Z,6.05
2022-11-24T15:00:31.728Z,6.03
2022-11-24T15:03:02.405Z,6.05
2022-11-24T15:05:50.854Z,6.05
2022-11-24T15:08:18.826Z,6.05
2022-11-24T15:10:46.977Z,6.06
2022-11-24T15:13:19.998Z,6.07
2022-11-24T15:15:51.998Z,6.06
2022-11-24T15:18:43.218Z,6.05
2022-11-24T15:21:18.569Z,6.08
2022-11-24T15:24:06.130Z,6.09
2022-11-24T15:26:38.512Z,6.07
2022-11-24T15:29:13.300Z,6.04
2022-11-24T15:31:44.198Z,6.05
2022-11-24T15:34:15.771Z,6.05
2022-11-24T15:36:43.621Z,6.08
2022-11-24T15:39:11.551Z,6.07
2022-11-24T15:41:40.733Z,6.11
2022-11-24T15:44:10.236Z,6.10
2022-11-24T15:46:39.557Z,6.10
2022-11-24T15:49:07.567Z,6.11
2022-11-24T15:51:36.126Z,6.10
2022-11-24T15:54:04.090Z,6.14
2022-11-24T15:56:34.743Z,6.12
2022-11-24T15:59:04.695Z,6.12
2022-11-24T16:01:34.472Z,6.10
2022-11-24T16:04:03.060Z,6.09
2022-11-24T16:06:31.125Z,6.08
2022-11-24T16:08:59.138Z,6.07
2022-11-24T16:11:27.665Z,6.04
2022-11-24T16:13:55.591Z,6.03
2022-11-24T16:16:25.405Z,6.00
2022-11-24T16:18:53.389Z,5.97
2022-11-24T16:21:21.390Z,5.95
2022-11-24T16:23:49.254Z,5.95
2022-11-24T16:26:17.275Z,5.97
2022-11-24T16:28:45.905Z,5.97
2022-11-24T16:31:16.022Z,5.96
2022-11-24T16:33:46.422Z,5.96
2022-11-24T16:36:14.406Z,5.93
2022-11-24T16:38:42.537Z,5.92
2022-11-24T16:41:10.674Z,5.91
2022-11-24T16:43:39.061Z,5.92
2022-11-24T16:46:07.015Z,5.92
2022-11-24T16:48:37.967Z,5.91
2022-11-24T16:51:07.109Z,5.93
2022-11-24T16:53:35.091Z,5.93
2022-11-24T16:56:03.700Z,5.92
2022-11-24T16:58:31.715Z,5.91
2022-11-24T17:01:04.982Z,5.88
2022-11-24T17:03:34.122Z,5.85
2022-11-24T17:06:02.196Z,5.84
2022-11-24T17:08:39.402Z,5.83
2022-11-24T17:11:14.831Z,5.81
2022-11-24T17:13:43.558Z,5.81
2022-11-24T17:16:14.111Z,5.82
2022-11-24T17:18:42.989Z,5.83
2022-11-24T17:21:22.256Z,5.85
2022-11-24T17:23:58.042Z,5.88
2022-11-24T17:26:27.114Z,5.88
2022-11-24T17:28:56.257Z,5.87
2022-11-24T17:31:27.354Z,5.88
2022-11-24T17:33:57.252Z,5.84
2022-11-24T17:36:26.309Z,5.83
2022-11-24T17:38:54.475Z,5.84
2022-11-24T17:41:23.298Z,5.86
2022-11-24T17:43:53.209Z,5.88
2022-11-24T17:46:21.458Z,5.89
2022-11-24T17:48:50.139Z,5.88
2022-11-24T17:51:20.467Z,5.88
2022-11-24T17:53:50.554Z,5.85
2022-11-24T17:56:23.531Z,5.80
2022-11-24T17:58:57.260Z,5.79
2022-11-24T18:01:28.700Z,5.77
2022-11-24T18:03:58.130Z,5.79
2022-11-24T18:06:28.707Z,5.79
2022-11-24T18:08:57.962Z,5.77
2022-11-24T18:11:32.001Z,5.77
2022-11-24T18:14:03.802Z,5.78
2022-11-24T18:16:34.584Z,5.79
2022-11-24T18:19:08.674Z,5.79
2022-11-24T18:21:41.220Z,5.78
2022-11-24T18:24:10.624Z,5.73
2022-11-24T18:26:40.472Z,5.73
2022-11-24T18:29:09.453Z,5.76
2022-11-24T18:31:38.302Z,5.75
2022-11-24T18:34:07.004Z,5.81
2022-11-24T18:36:35.179Z,5.81
2022-11-24T18:39:05.479Z,5.81
2022-11-24T18:41:34.885Z,5.80
2022-11-24T18:44:07.673Z,5.81
2022-11-24T18:46:36.803Z,5.77
2022-11-24T18:49:07.315Z,5.69
2022-11-24T18:51:36.028Z,5.65
2022-11-24T18:54:05.586Z,5.60
2022-11-24T18:56:34.124Z,5.55
2022-11-24T18:59:02.180Z,5.58
2022-11-24T19:01:30.291Z,5.55
2022-11-24T19:04:00.690Z,5.52
2022-11-24T19:06:32.519Z,5.52
2022-11-24T19:09:13.070Z,5.55
2022-11-24T19:11:43.489Z,5.57
2022-11-24T19:14:14.572Z,5.52
2022-11-24T19:16:43.253Z,5.52
2022-11-24T19:19:12.792Z,5.52
2022-11-24T19:21:41.251Z,5.50
2022-11-24T19:24:10.293Z,5.52
2022-11-24T19:26:39.475Z,5.50
2022-11-24T19:29:08.015Z,5.53
2022-11-24T19:31:38.459Z,5.49
2022-11-24T19:34:09.084Z,5.51
2022-11-24T19:36:37.705Z,5.51
2022-11-24T19:39:05.735Z,5.52
2022-11-24T19:41:34.606Z,5.52
2022-11-24T19:44:02.677Z,5.47
2022-11-24T19:46:30.731Z,5.52
2022-11-24T19:49:00.904Z,5.58
2022-11-24T19:51:32.168Z,5.61
2022-11-24T19:54:00.711Z,5.58
2022-11-24T19:56:31.463Z,5.51
2022-11-24T19:58:59.587Z,5.43
2022-11-24T20:01:33.537Z,5.31
2022-11-24T20:04:05.010Z,5.21
2022-11-24T20:06:36.871Z,5.16
2022-11-24T20:09:07.621Z,5.11
2022-11-24T20:11:35.615Z,5.04
2022-11-24T20:14:04.499Z,4.97
2022-11-24T20:16:33.719Z,4.89
2022-11-24T20:19:07.586Z,4.82
2022-11-24T20:21:37.826Z,4.71
2022-11-24T20:24:15.424Z,4.64
2022-11-24T20:26:46.866Z,4.58
2022-11-24T20:29:15.657Z,4.54
2022-11-24T20:31:46.816Z,4.47
2022-11-24T20:34:14.859Z,4.42
2022-11-24T20:36:45.612Z,4.40
2022-11-24T20:39:17.259Z,4.36
2022-11-24T20:41:45.204Z,4.33
2022-11-24T20:44:16.184Z,4.32
2022-11-24T20:46:45.024Z,4.28
2022-11-24T20:49:18.761Z,4.21
2022-11-24T20:51:54.313Z,4.17
2022-11-24T20:54:22.891Z,4.17
2022-11-24T20:56:50.960Z,4.16
2022-11-24T20:59:22.569Z,4.13
2022-11-24T21:01:51.965Z,4.11
2022-11-24T21:04:22.632Z,4.09
2022-11-24T21:06:50.827Z,4.07
2022-11-24T21:09:19.426Z,4.08
2022-11-24T21:11:48.241Z,4.08
2022-11-24T21:14:16.877Z,4.11
2022-11-24T21:16:44.902Z,4.14
2022-11-24T21:19:17.652Z,4.14
2022-11-24T21:21:47.770Z,4.15
2022-11-24T21:24:19.365Z,4.16
2022-11-24T21:26:47.895Z,4.13
2022-11-24T21:29:19.254Z,4.15
2022-11-24T21:31:47.349Z,4.14
2022-11-24T21:34:18.599Z,4.12
2022-11-24T21:36:47.296Z,4.09
2022-11-24T21:39:16.370Z,4.05
2022-11-24T21:41:44.819Z,4.06
2022-11-24T21:44:13.767Z,4.10
2022-11-24T21:46:48.117Z,4.10
2022-11-24T21:49:19.055Z,4.10
2022-11-24T21:51:47.513Z,4.10
2022-11-24T21:54:15.618Z,4.13
2022-11-24T21:56:43.628Z,4.13
2022-11-24T21:59:11.485Z,4.18
2022-11-24T22:01:39.590Z,4.19
2022-11-24T22:04:07.686Z,4.24
2022-11-24T22:06:35.866Z,4.21
2022-11-24T22:09:03.917Z,4.18
2022-11-24T22:11:31.791Z,4.19
2022-11-24T22:13:59.866Z,4.19
2022-11-24T22:16:28.193Z,4.19
2022-11-24T22:18:56.231Z,4.18
2022-11-24T22:21:30.155Z,4.14
2022-11-24T22:23:58.187Z,4.12
2022-11-24T22:26:27.697Z,4.10
2022-11-24T22:28:57.287Z,4.08
2022-11-24T22:31:27.716Z,4.04
2022-11-24T22:33:57.140Z,4.02
2022-11-24T22:36:27.822Z,4.02
2022-11-24T22:39:03.829Z,4.04
2022-11-24T22:41:34.048Z,4.06
2022-11-24T22:44:02.601Z,4.05
2022-11-24T22:46:32.064Z,4.02
2022-11-24T22:49:01.728Z,4.01
2022-11-24T22:51:33.019Z,3.99
2022-11-24T22:54:04.134Z,3.99
2022-11-24T22:56:33.528Z,4.01
2022-11-24T22:59:02.631Z,3.98
2022-11-24T23:01:32.129Z,4.03
2022-11-24T23:04:00.382Z,4.03
2022-11-24T23:06:31.205Z,4.01
2022-11-24T23:09:00.937Z,4.00
2022-11-24T23:11:37.239Z,4.02
2022-11-24T23:14:14.172Z,3.99
2022-11-24T23:16:42.872Z,4.00
2022-11-24T23:19:10.999Z,4.04
2022-11-24T23:21:39.098Z,4.02
2022-11-24T23:24:08.705Z,4.00
2022-11-24T23:26:39.733Z,3.97
2022-11-24T23:29:08.142Z,3.94
2022-11-24T23:31:39.779Z,3.93
2022-11-24T23:34:08.178Z,3.91
2022-11-24T23:36:36.146Z,3.87
2022-11-24T23:39:11.600Z,3.87
2022-11-24T23:41:40.078Z,3.84
2022-11-24T23:44:09.076Z,3.82
2022-11-24T23:46:37.338Z,3.86
2022-11-24T23:49:05.281Z,3.86
2022-11-24T23:51:33.845Z,3.87
2022-11-24T23:54:02.171Z,3.87
2022-11-24T23:56:32.756Z,3.85
2022-11-24T23:59:02.047Z,3.87
